sensor_id;sensor_type;location;lat;lon;timestamp;P1;durP1;ratioP1;P2;durP2;ratioP2
22382;SDS011;11359;45.802;13.530;2022-07-11T00:00:57;0.28;;;0.28;;
22382;SDS011;11359;45.802;13.530;2022-07-11T00:03:23;0.30;;;0.30;;
22382;SDS011;11359;45.802;13.530;2022-07-11T00:05:50;0.20;;;0.20;;
22382;SDS011;11359;45.802;13.530;2022-07-11T00:08:16;0.20;;;0.20;;
22382;SDS011;11359;45.802;13.530;2022-07-11T00:10:41;0.20;;;0.20;;
22382;SDS011;11359;45.802;13.530;2022-07-11T00:13:08;0.20;;;0.20;;
22382;SDS011;11359;45.802;13.530;2022-07-11T00:15:33;0.30;;;0.30;;
22382;SDS011;11359;45.802;13.530;2022-07-11T00:17:59;0.25;;;0.25;;
22382;SDS011;11359;45.802;13.530;2022-07-11T00:20:26;0.40;;;0.30;;
22382;SDS011;11359;45.802;13.530;2022-07-11T00:22:51;0.30;;;0.30;;
22382;SDS011;11359;45.802;13.530;2022-07-11T00:25:17;0.30;;;0.30;;
22382;SDS011;11359;45.802;13.530;2022-07-11T00:27:43;0.28;;;0.20;;
22382;SDS011;11359;45.802;13.530;2022-07-11T00:30:09;0.20;;;0.20;;
22382;SDS011;11359;45.802;13.530;2022-07-11T00:32:35;0.20;;;0.20;;
22382;SDS011;11359;45.802;13.530;2022-07-11T00:35:00;0.20;;;0.20;;
22382;SDS011;11359;45.802;13.530;2022-07-11T00:37:27;0.20;;;0.20;;
22382;SDS011;11359;45.802;13.530;2022-07-11T00:39:52;0.28;;;0.28;;
22382;SDS011;11359;45.802;13.530;2022-07-11T00:42:18;0.28;;;0.28;;
22382;SDS011;11359;45.802;13.530;2022-07-11T00:44:44;0.30;;;0.30;;
22382;SDS011;11359;45.802;13.530;2022-07-11T00:47:10;0.50;;;0.32;;
22382;SDS011;11359;45.802;13.530;2022-07-11T00:49:35;0.40;;;0.30;;
22382;SDS011;11359;45.802;13.530;2022-07-11T00:52:01;0.40;;;0.40;;
22382;SDS011;11359;45.802;13.530;2022-07-11T00:54:27;0.30;;;0.30;;
22382;SDS011;11359;45.802;13.530;2022-07-11T00:56:54;0.45;;;0.30;;
22382;SDS011;11359;45.802;13.530;2022-07-11T00:59:20;0.20;;;0.20;;
22382;SDS011;11359;45.802;13.530;2022-07-11T01:01:46;0.40;;;0.38;;
22382;SDS011;11359;45.802;13.530;2022-07-11T01:04:12;0.82;;;0.40;;
22382;SDS011;11359;45.802;13.530;2022-07-11T01:06:38;0.30;;;0.30;;
22382;SDS011;11359;45.802;13.530;2022-07-11T01:09:03;0.30;;;0.30;;
22382;SDS011;11359;45.802;13.530;2022-07-11T01:11:29;0.30;;;0.30;;
22382;SDS011;11359;45.802;13.530;2022-07-11T01:13:55;0.30;;;0.30;;
22382;SDS011;11359;45.802;13.530;2022-07-11T01:16:20;0.30;;;0.30;;
22382;SDS011;11359;45.802;13.530;2022-07-11T01:18:48;0.30;;;0.30;;
22382;SDS011;11359;45.802;13.530;2022-07-11T01:23:47;0.22;;;0.22;;
22382;SDS011;11359;45.802;13.530;2022-07-11T01:26:15;0.30;;;0.30;;
22382;SDS011;11359;45.802;13.530;2022-07-11T01:28:41;0.30;;;0.30;;
22382;SDS011;11359;45.802;13.530;2022-07-11T01:31:07;0.30;;;0.30;;
22382;SDS011;11359;45.802;13.530;2022-07-11T01:33:33;0.30;;;0.30;;
22382;SDS011;11359;45.802;13.530;2022-07-11T01:36:02;0.25;;;0.25;;
22382;SDS011;11359;45.802;13.530;2022-07-11T01:38:28;0.30;;;0.30;;
22382;SDS011;11359;45.802;13.530;2022-07-11T01:40:54;0.20;;;0.20;;
22382;SDS011;11359;45.802;13.530;2022-07-11T01:43:20;0.30;;;0.30;;
22382;SDS011;11359;45.802;13.530;2022-07-11T01:45:49;0.22;;;0.22;;
22382;SDS011;11359;45.802;13.530;2022-07-11T01:48:18;0.30;;;0.30;;
22382;SDS011;11359;45.802;13.530;2022-07-11T01:50:45;0.20;;;0.20;;
22382;SDS011;11359;45.802;13.530;2022-07-11T01:53:11;0.30;;;0.30;;
22382;SDS011;11359;45.802;13.530;2022-07-11T01:55:37;0.22;;;0.22;;
22382;SDS011;11359;45.802;13.530;2022-07-11T01:58:02;0.20;;;0.20;;
22382;SDS011;11359;45.802;13.530;2022-07-11T02:00:28;0.30;;;0.30;;
22382;SDS011;11359;45.802;13.530;2022-07-11T02:02:54;0.30;;;0.30;;
22382;SDS011;11359;45.802;13.530;2022-07-11T02:05:21;0.25;;;0.25;;
22382;SDS011;11359;45.802;13.530;2022-07-11T02:07:46;0.30;;;0.30;;
22382;SDS011;11359;45.802;13.530;2022-07-11T02:12:56;0.28;;;0.28;;
22382;SDS011;11359;45.802;13.530;2022-07-11T02:15:28;0.30;;;0.30;;
22382;SDS011;11359;45.802;13.530;2022-07-11T02:17:55;0.30;;;0.30;;
22382;SDS011;11359;45.802;13.530;2022-07-11T02:20:22;0.30;;;0.30;;
22382;SDS011;11359;45.802;13.530;2022-07-11T02:22:50;0.20;;;0.20;;
22382;SDS011;11359;45.802;13.530;2022-07-11T02:25:17;0.20;;;0.20;;
22382;SDS011;11359;45.802;13.530;2022-07-11T02:27:43;0.30;;;0.30;;
22382;SDS011;11359;45.802;13.530;2022-07-11T02:30:09;0.40;;;0.30;;
22382;SDS011;11359;45.802;13.530;2022-07-11T02:32:36;0.20;;;0.20;;
22382;SDS011;11359;45.802;13.530;2022-07-11T02:35:02;0.40;;;0.30;;
22382;SDS011;11359;45.802;13.530;2022-07-11T02:37:28;0.30;;;0.30;;
22382;SDS011;11359;45.802;13.530;2022-07-11T02:39:53;0.30;;;0.30;;
22382;SDS011;11359;45.802;13.530;2022-07-11T02:42:19;0.30;;;0.30;;
22382;SDS011;11359;45.802;13.530;2022-07-11T02:44:45;0.30;;;0.30;;
22382;SDS011;11359;45.802;13.530;2022-07-11T02:47:11;0.30;;;0.30;;
22382;SDS011;11359;45.802;13.530;2022-07-11T02:49:37;0.30;;;0.30;;
22382;SDS011;11359;45.802;13.530;2022-07-11T02:52:03;0.40;;;0.40;;
22382;SDS011;11359;45.802;13.530;2022-07-11T02:54:29;0.30;;;0.30;;
22382;SDS011;11359;45.802;13.530;2022-07-11T02:56:55;0.30;;;0.30;;
22382;SDS011;11359;45.802;13.530;2022-07-11T02:59:21;0.20;;;0.20;;
22382;SDS011;11359;45.802;13.530;2022-07-11T03:01:47;0.20;;;0.20;;
22382;SDS011;11359;45.802;13.530;2022-07-11T03:04:13;0.22;;;0.22;;
22382;SDS011;11359;45.802;13.530;2022-07-11T03:06:39;0.30;;;0.30;;
22382;SDS011;11359;45.802;13.530;2022-07-11T03:09:05;0.30;;;0.25;;
22382;SDS011;11359;45.802;13.530;2022-07-11T03:11:32;0.30;;;0.30;;
22382;SDS011;11359;45.802;13.530;2022-07-11T03:13:59;1.23;;;0.40;;
22382;SDS011;11359;45.802;13.530;2022-07-11T03:16:29;0.30;;;0.30;;
22382;SDS011;11359;45.802;13.530;2022-07-11T03:18:55;0.30;;;0.20;;
22382;SDS011;11359;45.802;13.530;2022-07-11T03:21:22;0.50;;;0.30;;
22382;SDS011;11359;45.802;13.530;2022-07-11T03:23:49;0.30;;;0.30;;
22382;SDS011;11359;45.802;13.530;2022-07-11T03:26:15;0.30;;;0.30;;
22382;SDS011;11359;45.802;13.530;2022-07-11T03:28:41;0.40;;;0.30;;
22382;SDS011;11359;45.802;13.530;2022-07-11T03:31:07;0.40;;;0.30;;
22382;SDS011;11359;45.802;13.530;2022-07-11T03:33:33;0.85;;;0.40;;
22382;SDS011;11359;45.802;13.530;2022-07-11T03:35:59;0.77;;;0.40;;
22382;SDS011;11359;45.802;13.530;2022-07-11T03:38:24;0.20;;;0.20;;
22382;SDS011;11359;45.802;13.530;2022-07-11T03:40:50;0.38;;;0.38;;
22382;SDS011;11359;45.802;13.530;2022-07-11T03:43:16;0.35;;;0.30;;
22382;SDS011;11359;45.802;13.530;2022-07-11T03:45:42;0.28;;;0.20;;
22382;SDS011;11359;45.802;13.530;2022-07-11T03:48:08;0.30;;;0.30;;
22382;SDS011;11359;45.802;13.530;2022-07-11T03:50:34;0.28;;;0.20;;
22382;SDS011;11359;45.802;13.530;2022-07-11T03:53:00;0.45;;;0.38;;
22382;SDS011;11359;45.802;13.530;2022-07-11T03:55:27;0.77;;;0.40;;
22382;SDS011;11359;45.802;13.530;2022-07-11T03:57:54;0.35;;;0.30;;
22382;SDS011;11359;45.802;13.530;2022-07-11T04:00:20;0.40;;;0.40;;
22382;SDS011;11359;45.802;13.530;2022-07-11T04:02:46;0.60;;;0.40;;
22382;SDS011;11359;45.802;13.530;2022-07-11T04:05:13;0.50;;;0.45;;
22382;SDS011;11359;45.802;13.530;2022-07-11T04:07:39;0.73;;;0.50;;
22382;SDS011;11359;45.802;13.530;2022-07-11T04:10:05;0.63;;;0.40;;
22382;SDS011;11359;45.802;13.530;2022-07-11T04:12:31;0.40;;;0.30;;
22382;SDS011;11359;45.802;13.530;2022-07-11T04:14:57;0.40;;;0.40;;
22382;SDS011;11359;45.802;13.530;2022-07-11T04:17:22;0.52;;;0.40;;
22382;SDS011;11359;45.802;13.530;2022-07-11T04:19:48;0.30;;;0.30;;
22382;SDS011;11359;45.802;13.530;2022-07-11T04:22:14;0.40;;;0.40;;
22382;SDS011;11359;45.802;13.530;2022-07-11T04:24:40;0.40;;;0.40;;
22382;SDS011;11359;45.802;13.530;2022-07-11T04:27:06;0.57;;;0.40;;
22382;SDS011;11359;45.802;13.530;2022-07-11T04:29:31;0.52;;;0.40;;
22382;SDS011;11359;45.802;13.530;2022-07-11T04:31:57;0.60;;;0.30;;
22382;SDS011;11359;45.802;13.530;2022-07-11T04:34:23;0.63;;;0.40;;
22382;SDS011;11359;45.802;13.530;2022-07-11T04:36:49;1.65;;;0.57;;
22382;SDS011;11359;45.802;13.530;2022-07-11T04:39:14;0.40;;;0.40;;
22382;SDS011;11359;45.802;13.530;2022-07-11T04:41:40;0.40;;;0.40;;
22382;SDS011;11359;45.802;13.530;2022-07-11T04:44:06;0.47;;;0.35;;
22382;SDS011;11359;45.802;13.530;2022-07-11T04:46:32;0.65;;;0.35;;
22382;SDS011;11359;45.802;13.530;2022-07-11T04:48:58;0.30;;;0.30;;
22382;SDS011;11359;45.802;13.530;2022-07-11T04:51:25;0.30;;;0.30;;
22382;SDS011;11359;45.802;13.530;2022-07-11T04:53:51;0.60;;;0.40;;
22382;SDS011;11359;45.802;13.530;2022-07-11T04:56:17;0.43;;;0.30;;
22382;SDS011;11359;45.802;13.530;2022-07-11T04:58:43;0.30;;;0.25;;
22382;SDS011;11359;45.802;13.530;2022-07-11T05:01:09;0.40;;;0.30;;
22382;SDS011;11359;45.802;13.530;2022-07-11T05:03:35;0.38;;;0.30;;
22382;SDS011;11359;45.802;13.530;2022-07-11T05:06:02;0.38;;;0.30;;
22382;SDS011;11359;45.802;13.530;2022-07-11T05:08:28;0.70;;;0.30;;
22382;SDS011;11359;45.802;13.530;2022-07-11T05:10:54;0.30;;;0.30;;
22382;SDS011;11359;45.802;13.530;2022-07-11T05:13:21;0.30;;;0.30;;
22382;SDS011;11359;45.802;13.530;2022-07-11T05:15:47;0.52;;;0.30;;
22382;SDS011;11359;45.802;13.530;2022-07-11T05:18:13;0.30;;;0.30;;
22382;SDS011;11359;45.802;13.530;2022-07-11T05:20:39;0.40;;;0.32;;
22382;SDS011;11359;45.802;13.530;2022-07-11T05:23:04;0.30;;;0.30;;
22382;SDS011;11359;45.802;13.530;2022-07-11T05:25:30;0.25;;;0.25;;
22382;SDS011;11359;45.802;13.530;2022-07-11T05:27:56;0.40;;;0.30;;
22382;SDS011;11359;45.802;13.530;2022-07-11T05:30:21;0.30;;;0.30;;
22382;SDS011;11359;45.802;13.530;2022-07-11T05:32:47;0.40;;;0.35;;
22382;SDS011;11359;45.802;13.530;2022-07-11T05:35:13;0.30;;;0.30;;
22382;SDS011;11359;45.802;13.530;2022-07-11T05:37:38;0.20;;;0.20;;
22382;SDS011;11359;45.802;13.530;2022-07-11T05:40:04;0.43;;;0.43;;
22382;SDS011;11359;45.802;13.530;2022-07-11T05:42:31;0.30;;;0.30;;
22382;SDS011;11359;45.802;13.530;2022-07-11T05:44:57;0.30;;;0.30;;
22382;SDS011;11359;45.802;13.530;2022-07-11T05:47:23;0.30;;;0.30;;
22382;SDS011;11359;45.802;13.530;2022-07-11T05:49:48;0.30;;;0.30;;
22382;SDS011;11359;45.802;13.530;2022-07-11T05:52:14;0.45;;;0.40;;
22382;SDS011;11359;45.802;13.530;2022-07-11T05:54:40;0.40;;;0.30;;
22382;SDS011;11359;45.802;13.530;2022-07-11T05:57:06;0.30;;;0.30;;
22382;SDS011;11359;45.802;13.530;2022-07-11T05:59:31;0.50;;;0.30;;
22382;SDS011;11359;45.802;13.530;2022-07-11T06:01:57;0.20;;;0.20;;
22382;SDS011;11359;45.802;13.530;2022-07-11T06:04:23;0.30;;;0.30;;
22382;SDS011;11359;45.802;13.530;2022-07-11T06:06:49;0.45;;;0.30;;
22382;SDS011;11359;45.802;13.530;2022-07-11T06:09:14;0.30;;;0.30;;
22382;SDS011;11359;45.802;13.530;2022-07-11T06:11:40;0.30;;;0.30;;
22382;SDS011;11359;45.802;13.530;2022-07-11T06:14:06;0.30;;;0.30;;
22382;SDS011;11359;45.802;13.530;2022-07-11T06:16:32;0.40;;;0.40;;
22382;SDS011;11359;45.802;13.530;2022-07-11T06:18:58;0.40;;;0.30;;
22382;SDS011;11359;45.802;13.530;2022-07-11T06:21:25;0.30;;;0.30;;
22382;SDS011;11359;45.802;13.530;2022-07-11T06:23:51;0.20;;;0.20;;
22382;SDS011;11359;45.802;13.530;2022-07-11T06:26:17;0.30;;;0.30;;
22382;SDS011;11359;45.802;13.530;2022-07-11T06:28:43;0.30;;;0.30;;
22382;SDS011;11359;45.802;13.530;2022-07-11T06:31:09;0.30;;;0.30;;
22382;SDS011;11359;45.802;13.530;2022-07-11T06:33:35;0.30;;;0.30;;
22382;SDS011;11359;45.802;13.530;2022-07-11T06:36:04;0.30;;;0.30;;
22382;SDS011;11359;45.802;13.530;2022-07-11T06:38:30;0.45;;;0.30;;
22382;SDS011;11359;45.802;13.530;2022-07-11T06:40:57;0.20;;;0.20;;
22382;SDS011;11359;45.802;13.530;2022-07-11T06:43:23;0.30;;;0.30;;
22382;SDS011;11359;45.802;13.530;2022-07-11T06:45:49;0.20;;;0.20;;
22382;SDS011;11359;45.802;13.530;2022-07-11T06:48:15;0.30;;;0.20;;
22382;SDS011;11359;45.802;13.530;2022-07-11T06:50:41;0.40;;;0.38;;
22382;SDS011;11359;45.802;13.530;2022-07-11T06:53:08;0.47;;;0.30;;
22382;SDS011;11359;45.802;13.530;2022-07-11T06:55:35;0.30;;;0.30;;
22382;SDS011;11359;45.802;13.530;2022-07-11T06:58:01;0.30;;;0.30;;
22382;SDS011;11359;45.802;13.530;2022-07-11T07:00:27;0.30;;;0.30;;
22382;SDS011;11359;45.802;13.530;2022-07-11T07:02:54;0.77;;;0.35;;
22382;SDS011;11359;45.802;13.530;2022-07-11T07:05:21;0.30;;;0.30;;
22382;SDS011;11359;45.802;13.530;2022-07-11T07:07:48;0.30;;;0.30;;
22382;SDS011;11359;45.802;13.530;2022-07-11T07:10:14;0.40;;;0.30;;
22382;SDS011;11359;45.802;13.530;2022-07-11T07:12:40;0.43;;;0.30;;
22382;SDS011;11359;45.802;13.530;2022-07-11T07:15:06;0.22;;;0.22;;
22382;SDS011;11359;45.802;13.530;2022-07-11T07:17:32;0.32;;;0.20;;
22382;SDS011;11359;45.802;13.530;2022-07-11T07:19:58;0.30;;;0.30;;
22382;SDS011;11359;45.802;13.530;2022-07-11T07:22:23;0.20;;;0.20;;
22382;SDS011;11359;45.802;13.530;2022-07-11T07:24:49;0.30;;;0.30;;
22382;SDS011;11359;45.802;13.530;2022-07-11T07:27:15;0.25;;;0.20;;
22382;SDS011;11359;45.802;13.530;2022-07-11T07:29:40;0.20;;;0.20;;
22382;SDS011;11359;45.802;13.530;2022-07-11T07:32:06;0.20;;;0.20;;
22382;SDS011;11359;45.802;13.530;2022-07-11T07:34:32;0.20;;;0.20;;
22382;SDS011;11359;45.802;13.530;2022-07-11T07:36:58;0.30;;;0.20;;
22382;SDS011;11359;45.802;13.530;2022-07-11T07:39:24;0.20;;;0.20;;
22382;SDS011;11359;45.802;13.530;2022-07-11T07:41:50;0.20;;;0.20;;
22382;SDS011;11359;45.802;13.530;2022-07-11T07:44:16;0.20;;;0.20;;
22382;SDS011;11359;45.802;13.530;2022-07-11T07:46:42;0.20;;;0.20;;
22382;SDS011;11359;45.802;13.530;2022-07-11T07:49:08;0.22;;;0.20;;
22382;SDS011;11359;45.802;13.530;2022-07-11T07:51:33;0.20;;;0.20;;
22382;SDS011;11359;45.802;13.530;2022-07-11T07:53:59;0.20;;;0.20;;
22382;SDS011;11359;45.802;13.530;2022-07-11T07:56:25;0.20;;;0.20;;
22382;SDS011;11359;45.802;13.530;2022-07-11T07:58:51;0.20;;;0.20;;
22382;SDS011;11359;45.802;13.530;2022-07-11T08:01:16;0.20;;;0.20;;
22382;SDS011;11359;45.802;13.530;2022-07-11T08:04:04;0.20;;;0.20;;
22382;SDS011;11359;45.802;13.530;2022-07-11T08:06:32;0.20;;;0.20;;
22382;SDS011;11359;45.802;13.530;2022-07-11T08:08:59;0.20;;;0.20;;
22382;SDS011;11359;45.802;13.530;2022-07-11T08:11:26;0.20;;;0.20;;
22382;SDS011;11359;45.802;13.530;2022-07-11T08:13:52;0.20;;;0.20;;
22382;SDS011;11359;45.802;13.530;2022-07-11T08:16:19;0.20;;;0.20;;
22382;SDS011;11359;45.802;13.530;2022-07-11T08:18:45;0.20;;;0.20;;
22382;SDS011;11359;45.802;13.530;2022-07-11T08:21:11;0.20;;;0.20;;
22382;SDS011;11359;45.802;13.530;2022-07-11T08:23:37;0.20;;;0.20;;
22382;SDS011;11359;45.802;13.530;2022-07-11T08:26:03;0.20;;;0.20;;
22382;SDS011;11359;45.802;13.530;2022-07-11T08:28:29;0.20;;;0.20;;
22382;SDS011;11359;45.802;13.530;2022-07-11T08:30:55;0.10;;;0.10;;
22382;SDS011;11359;45.802;13.530;2022-07-11T08:33:21;0.20;;;0.20;;
22382;SDS011;11359;45.802;13.530;2022-07-11T08:35:46;0.20;;;0.20;;
22382;SDS011;11359;45.802;13.530;2022-07-11T08:38:12;0.20;;;0.20;;
22382;SDS011;11359;45.802;13.530;2022-07-11T08:40:41;0.20;;;0.20;;
22382;SDS011;11359;45.802;13.530;2022-07-11T08:43:12;0.20;;;0.20;;
22382;SDS011;11359;45.802;13.530;2022-07-11T08:45:40;0.20;;;0.20;;
22382;SDS011;11359;45.802;13.530;2022-07-11T08:48:06;0.20;;;0.20;;
22382;SDS011;11359;45.802;13.530;2022-07-11T08:50:34;0.20;;;0.20;;
22382;SDS011;11359;45.802;13.530;2022-07-11T08:53:00;0.20;;;0.20;;
22382;SDS011;11359;45.802;13.530;2022-07-11T08:55:30;0.20;;;0.20;;
22382;SDS011;11359;45.802;13.530;2022-07-11T08:57:56;0.20;;;0.20;;
22382;SDS011;11359;45.802;13.530;2022-07-11T09:00:23;0.30;;;0.25;;
22382;SDS011;11359;45.802;13.530;2022-07-11T09:02:49;0.20;;;0.20;;
22382;SDS011;11359;45.802;13.530;2022-07-11T09:05:15;0.20;;;0.20;;
22382;SDS011;11359;45.802;13.530;2022-07-11T09:07:45;0.20;;;0.20;;
22382;SDS011;11359;45.802;13.530;2022-07-11T09:10:12;0.22;;;0.20;;
22382;SDS011;11359;45.802;13.530;2022-07-11T09:15:38;0.20;;;0.20;;
22382;SDS011;11359;45.802;13.530;2022-07-11T09:18:50;0.20;;;0.20;;
22382;SDS011;11359;45.802;13.530;2022-07-11T09:23:42;0.20;;;0.20;;
22382;SDS011;11359;45.802;13.530;2022-07-11T09:26:31;0.40;;;0.30;;
22382;SDS011;11359;45.802;13.530;2022-07-11T09:29:12;0.30;;;0.30;;
22382;SDS011;11359;45.802;13.530;2022-07-11T09:31:40;0.20;;;0.20;;
22382;SDS011;11359;45.802;13.530;2022-07-11T09:34:08;0.20;;;0.20;;
22382;SDS011;11359;45.802;13.530;2022-07-11T09:39:21;0.30;;;0.30;;
22382;SDS011;11359;45.802;13.530;2022-07-11T09:41:51;0.30;;;0.30;;
22382;SDS011;11359;45.802;13.530;2022-07-11T09:46:58;0.20;;;0.20;;
22382;SDS011;11359;45.802;13.530;2022-07-11T09:49:29;0.35;;;0.20;;
22382;SDS011;11359;45.802;13.530;2022-07-11T09:52:06;0.20;;;0.20;;
22382;SDS011;11359;45.802;13.530;2022-07-11T09:54:32;0.20;;;0.20;;
22382;SDS011;11359;45.802;13.530;2022-07-11T09:56:57;0.20;;;0.20;;
22382;SDS011;11359;45.802;13.530;2022-07-11T09:59:23;0.20;;;0.20;;
22382;SDS011;11359;45.802;13.530;2022-07-11T10:01:49;0.20;;;0.20;;
22382;SDS011;11359;45.802;13.530;2022-07-11T10:04:14;0.20;;;0.20;;
22382;SDS011;11359;45.802;13.530;2022-07-11T10:06:40;0.65;;;0.20;;
22382;SDS011;11359;45.802;13.530;2022-07-11T10:09:06;0.20;;;0.20;;
22382;SDS011;11359;45.802;13.530;2022-07-11T10:11:32;0.20;;;0.20;;
22382;SDS011;11359;45.802;13.530;2022-07-11T10:14:00;0.20;;;0.20;;
22382;SDS011;11359;45.802;13.530;2022-07-11T10:16:38;0.20;;;0.20;;
22382;SDS011;11359;45.802;13.530;2022-07-11T10:25:02;0.65;;;0.20;;
22382;SDS011;11359;45.802;13.530;2022-07-11T10:30:42;0.20;;;0.20;;
22382;SDS011;11359;45.802;13.530;2022-07-11T10:33:10;0.20;;;0.20;;
22382;SDS011;11359;45.802;13.530;2022-07-11T10:35:39;0.20;;;0.20;;
22382;SDS011;11359;45.802;13.530;2022-07-11T10:38:05;0.20;;;0.20;;
22382;SDS011;11359;45.802;13.530;2022-07-11T10:40:41;0.10;;;0.10;;
22382;SDS011;11359;45.802;13.530;2022-07-11T10:45:56;0.28;;;0.28;;
22382;SDS011;11359;45.802;13.530;2022-07-11T10:48:23;0.20;;;0.20;;
22382;SDS011;11359;45.802;13.530;2022-07-11T10:53:54;0.20;;;0.20;;
22382;SDS011;11359;45.802;13.530;2022-07-11T10:59:24;1.08;;;0.30;;
22382;SDS011;11359;45.802;13.530;2022-07-11T11:15:34;0.20;;;0.20;;
22382;SDS011;11359;45.802;13.530;2022-07-11T11:23:29;0.20;;;0.20;;
22382;SDS011;11359;45.802;13.530;2022-07-11T11:26:04;0.20;;;0.20;;
22382;SDS011;11359;45.802;13.530;2022-07-11T11:28:35;0.20;;;0.20;;
22382;SDS011;11359;45.802;13.530;2022-07-11T11:31:05;0.20;;;0.20;;
22382;SDS011;11359;45.802;13.530;2022-07-11T11:33:33;0.20;;;0.20;;
22382;SDS011;11359;45.802;13.530;2022-07-11T11:36:03;0.20;;;0.20;;
22382;SDS011;11359;45.802;13.530;2022-07-11T11:38:44;0.20;;;0.20;;
22382;SDS011;11359;45.802;13.530;2022-07-11T11:41:13;0.20;;;0.20;;
22382;SDS011;11359;45.802;13.530;2022-07-11T11:43:41;0.20;;;0.20;;
22382;SDS011;11359;45.802;13.530;2022-07-11T11:46:11;0.20;;;0.20;;
22382;SDS011;11359;45.802;13.530;2022-07-11T11:48:37;0.20;;;0.20;;
22382;SDS011;11359;45.802;13.530;2022-07-11T11:51:10;0.20;;;0.20;;
22382;SDS011;11359;45.802;13.530;2022-07-11T11:53:41;0.20;;;0.20;;
22382;SDS011;11359;45.802;13.530;2022-07-11T11:58:42;0.20;;;0.20;;
22382;SDS011;11359;45.802;13.530;2022-07-11T12:01:09;0.30;;;0.30;;
22382;SDS011;11359;45.802;13.530;2022-07-11T12:03:57;0.40;;;0.40;;
22382;SDS011;11359;45.802;13.530;2022-07-11T12:06:28;0.40;;;0.40;;
22382;SDS011;11359;45.802;13.530;2022-07-11T12:08:58;0.40;;;0.40;;
22382;SDS011;11359;45.802;13.530;2022-07-11T12:11:24;0.30;;;0.30;;
22382;SDS011;11359;45.802;13.530;2022-07-11T12:13:57;0.63;;;0.50;;
22382;SDS011;11359;45.802;13.530;2022-07-11T12:16:24;0.50;;;0.40;;
22382;SDS011;11359;45.802;13.530;2022-07-11T12:19:07;0.80;;;0.40;;
22382;SDS011;11359;45.802;13.530;2022-07-11T12:21:35;1.10;;;0.50;;
22382;SDS011;11359;45.802;13.530;2022-07-11T12:24:05;0.73;;;0.45;;
22382;SDS011;11359;45.802;13.530;2022-07-11T12:26:32;0.40;;;0.40;;
22382;SDS011;11359;45.802;13.530;2022-07-11T12:31:41;0.40;;;0.40;;
22382;SDS011;11359;45.802;13.530;2022-07-11T12:37:05;0.30;;;0.30;;
22382;SDS011;11359;45.802;13.530;2022-07-11T12:39:33;0.20;;;0.20;;
22382;SDS011;11359;45.802;13.530;2022-07-11T12:42:23;0.35;;;0.30;;
22382;SDS011;11359;45.802;13.530;2022-07-11T12:47:35;0.30;;;0.30;;
22382;SDS011;11359;45.802;13.530;2022-07-11T12:52:43;0.20;;;0.20;;
22382;SDS011;11359;45.802;13.530;2022-07-11T12:55:19;0.50;;;0.40;;
22382;SDS011;11359;45.802;13.530;2022-07-11T12:58:13;0.43;;;0.43;;
22382;SDS011;11359;45.802;13.530;2022-07-11T13:00:57;0.40;;;0.40;;
22382;SDS011;11359;45.802;13.530;2022-07-11T13:03:34;0.30;;;0.30;;
22382;SDS011;11359;45.802;13.530;2022-07-11T13:06:01;0.40;;;0.35;;
22382;SDS011;11359;45.802;13.530;2022-07-11T13:08:29;0.20;;;0.20;;
22382;SDS011;11359;45.802;13.530;2022-07-11T13:11:19;0.30;;;0.30;;
22382;SDS011;11359;45.802;13.530;2022-07-11T13:13:49;0.22;;;0.22;;
22382;SDS011;11359;45.802;13.530;2022-07-11T13:16:16;0.30;;;0.30;;
22382;SDS011;11359;45.802;13.530;2022-07-11T13:18:42;0.30;;;0.30;;
22382;SDS011;11359;45.802;13.530;2022-07-11T13:21:08;0.20;;;0.20;;
22382;SDS011;11359;45.802;13.530;2022-07-11T13:23:37;0.30;;;0.30;;
22382;SDS011;11359;45.802;13.530;2022-07-11T13:26:05;0.20;;;0.20;;
22382;SDS011;11359;45.802;13.530;2022-07-11T13:28:31;0.30;;;0.30;;
22382;SDS011;11359;45.802;13.530;2022-07-11T13:30:58;0.30;;;0.30;;
22382;SDS011;11359;45.802;13.530;2022-07-11T13:33:24;0.65;;;0.50;;
22382;SDS011;11359;45.802;13.530;2022-07-11T13:35:51;0.30;;;0.30;;
22382;SDS011;11359;45.802;13.530;2022-07-11T13:38:18;0.73;;;0.50;;
22382;SDS011;11359;45.802;13.530;2022-07-11T13:40:45;0.30;;;0.30;;
22382;SDS011;11359;45.802;13.530;2022-07-11T13:43:11;0.63;;;0.43;;
22382;SDS011;11359;45.802;13.530;2022-07-11T13:45:38;0.47;;;0.47;;
22382;SDS011;11359;45.802;13.530;2022-07-11T13:48:05;0.55;;;0.40;;
22382;SDS011;11359;45.802;13.530;2022-07-11T13:50:31;0.47;;;0.40;;
22382;SDS011;11359;45.802;13.530;2022-07-11T13:52:58;0.40;;;0.40;;
22382;SDS011;11359;45.802;13.530;2022-07-11T13:55:23;0.63;;;0.50;;
22382;SDS011;11359;45.802;13.530;2022-07-11T13:57:54;0.50;;;0.50;;
22382;SDS011;11359;45.802;13.530;2022-07-11T14:00:21;1.05;;;0.40;;
22382;SDS011;11359;45.802;13.530;2022-07-11T14:02:48;0.52;;;0.45;;
22382;SDS011;11359;45.802;13.530;2022-07-11T14:05:14;0.43;;;0.43;;
22382;SDS011;11359;45.802;13.530;2022-07-11T14:07:40;0.50;;;0.50;;
22382;SDS011;11359;45.802;13.530;2022-07-11T14:10:07;1.45;;;0.75;;
22382;SDS011;11359;45.802;13.530;2022-07-11T14:12:34;0.60;;;0.50;;
22382;SDS011;11359;45.802;13.530;2022-07-11T14:15:00;0.60;;;0.50;;
22382;SDS011;11359;45.802;13.530;2022-07-11T14:17:27;0.73;;;0.63;;
22382;SDS011;11359;45.802;13.530;2022-07-11T14:19:53;0.80;;;0.50;;
22382;SDS011;11359;45.802;13.530;2022-07-11T14:22:20;1.02;;;0.60;;
22382;SDS011;11359;45.802;13.530;2022-07-11T14:24:46;0.90;;;0.60;;
22382;SDS011;11359;45.802;13.530;2022-07-11T14:27:12;0.38;;;0.38;;
22382;SDS011;11359;45.802;13.530;2022-07-11T14:29:40;0.47;;;0.43;;
22382;SDS011;11359;45.802;13.530;2022-07-11T14:32:07;0.65;;;0.52;;
22382;SDS011;11359;45.802;13.530;2022-07-11T14:34:33;0.45;;;0.40;;
22382;SDS011;11359;45.802;13.530;2022-07-11T14:36:58;0.40;;;0.40;;
22382;SDS011;11359;45.802;13.530;2022-07-11T14:39:24;0.93;;;0.77;;
22382;SDS011;11359;45.802;13.530;2022-07-11T14:41:50;0.40;;;0.40;;
22382;SDS011;11359;45.802;13.530;2022-07-11T14:44:15;0.35;;;0.30;;
22382;SDS011;11359;45.802;13.530;2022-07-11T14:46:41;0.40;;;0.32;;
22382;SDS011;11359;45.802;13.530;2022-07-11T14:49:07;0.40;;;0.40;;
22382;SDS011;11359;45.802;13.530;2022-07-11T14:51:34;0.80;;;0.50;;
22382;SDS011;11359;45.802;13.530;2022-07-11T14:54:00;0.75;;;0.38;;
22382;SDS011;11359;45.802;13.530;2022-07-11T14:56:26;0.45;;;0.45;;
22382;SDS011;11359;45.802;13.530;2022-07-11T14:58:52;0.60;;;0.50;;
22382;SDS011;11359;45.802;13.530;2022-07-11T15:01:18;0.95;;;0.50;;
22382;SDS011;11359;45.802;13.530;2022-07-11T15:03:43;0.30;;;0.30;;
22382;SDS011;11359;45.802;13.530;2022-07-11T15:06:11;0.43;;;0.40;;
22382;SDS011;11359;45.802;13.530;2022-07-11T15:08:39;0.68;;;0.50;;
22382;SDS011;11359;45.802;13.530;2022-07-11T15:11:23;0.40;;;0.40;;
22382;SDS011;11359;45.802;13.530;2022-07-11T15:14:09;0.32;;;0.32;;
22382;SDS011;11359;45.802;13.530;2022-07-11T15:16:36;1.13;;;0.50;;
22382;SDS011;11359;45.802;13.530;2022-07-11T15:19:03;0.60;;;0.45;;
22382;SDS011;11359;45.802;13.530;2022-07-11T15:21:30;0.30;;;0.30;;
22382;SDS011;11359;45.802;13.530;2022-07-11T15:23:56;0.30;;;0.30;;
22382;SDS011;11359;45.802;13.530;2022-07-11T15:26:22;0.28;;;0.28;;
22382;SDS011;11359;45.802;13.530;2022-07-11T15:28:48;0.38;;;0.38;;
22382;SDS011;11359;45.802;13.530;2022-07-11T15:31:16;0.60;;;0.40;;
22382;SDS011;11359;45.802;13.530;2022-07-11T15:33:42;0.93;;;0.40;;
22382;SDS011;11359;45.802;13.530;2022-07-11T15:36:09;0.40;;;0.40;;
22382;SDS011;11359;45.802;13.530;2022-07-11T15:38:35;0.40;;;0.40;;
22382;SDS011;11359;45.802;13.530;2022-07-11T15:41:01;0.30;;;0.30;;